Time;durP1;ratioP1;P1;durP2;ratioP2;P2;SDS_P1;SDS_P2;PMS_P1;PMS_P2;Temp;Humidity;BMP_temperature;BMP_pressure;BME280_temperature;BME280_humidity;BME280_pressure;Samples;Min_cycle;Max_cycle;Signal;HPM_P1;HPM_P2
2023/09/28 00:02:55;;;;;;;2.83;2.28;;;23.30;58.80;24.80;101128.00;;;;4939893;28;20589;-73
2023/09/28 00:05:21;;;;;;;3.42;2.67;;;23.30;58.80;24.80;101127.00;;;;4950068;28;20233;-73
2023/09/28 00:07:49;;;;;;;3.47;3.17;;;23.30;58.90;24.80;101135.00;;;;4950267;28;20210;-73
2023/09/28 00:10:18;;;;;;;2.85;2.13;;;23.30;58.90;24.80;101129.00;;;;4951957;28;20215;-73
2023/09/28 00:12:48;;;;;;;3.67;2.80;;;23.30;58.90;24.70;101145.00;;;;4950902;29;20241;-73
2023/09/28 00:15:17;;;;;;;4.07;2.72;;;23.30;59.00;24.70;101146.00;;;;4949659;28;20218;-73
2023/09/28 00:17:47;;;;;;;4.43;2.55;;;23.20;58.90;24.70;101145.00;;;;4950712;28;20333;-73
2023/09/28 00:20:17;;;;;;;4.35;2.25;;;23.20;58.90;24.70;101146.00;;;;4949857;28;20274;-73
2023/09/28 00:22:44;;;;;;;2.80;2.50;;;23.20;59.00;24.70;101159.00;;;;5008646;28;20203;-73
2023/09/28 00:25:11;;;;;;;2.58;2.15;;;23.20;59.00;24.70;101164.00;;;;5005828;28;20314;-73
2023/09/28 00:27:41;;;;;;;3.25;2.50;;;23.10;59.10;24.60;101166.00;;;;4964485;28;20200;-73
2023/09/28 00:30:09;;;;;;;4.03;2.60;;;23.10;59.20;24.60;101164.00;;;;4942735;28;20203;-74
2023/09/28 00:32:37;;;;;;;3.05;2.20;;;23.10;59.20;24.60;101163.00;;;;4946431;28;20704;-73
2023/09/28 00:35:04;;;;;;;2.58;2.22;;;23.10;59.20;24.60;101177.00;;;;4949513;28;20199;-73
2023/09/28 00:37:31;;;;;;;2.63;2.42;;;23.00;59.30;24.50;101172.00;;;;4950323;29;20199;-73
2023/09/28 00:39:58;;;;;;;2.20;1.90;;;23.00;59.80;24.50;101182.00;;;;4949849;28;20195;-73
2023/09/28 00:42:26;;;;;;;2.60;2.38;;;23.00;59.30;24.50;101174.00;;;;4950467;28;20245;-73
2023/09/28 00:44:54;;;;;;;3.05;2.63;;;23.00;59.30;24.50;101179.00;;;;4953166;28;20195;-73
2023/09/28 00:47:21;;;;;;;4.45;2.50;;;22.90;59.40;24.40;101169.00;;;;4949429;28;20625;-73
2023/09/28 00:49:48;;;;;;;2.60;2.30;;;22.90;59.40;24.40;101159.00;;;;4950527;29;20199;-73
2023/09/28 00:52:17;;;;;;;2.60;2.40;;;22.90;59.50;24.40;101165.00;;;;4947896;28;20288;-73
2023/09/28 00:54:46;;;;;;;3.90;2.47;;;22.80;59.40;24.40;101164.00;;;;4948291;28;20218;-73
2023/09/28 00:57:14;;;;;;;3.30;2.47;;;22.80;59.50;24.40;101164.00;;;;4948353;28;20286;-73
2023/09/28 00:59:40;;;;;;;2.78;2.25;;;22.80;59.50;24.30;101164.00;;;;4950156;28;20210;-73
2023/09/28 01:02:09;;;;;;;3.15;2.17;;;22.70;59.50;24.30;101166.00;;;;4963626;28;20298;-73
2023/09/28 01:04:37;;;;;;;3.13;2.33;;;22.70;59.60;24.20;101179.00;;;;4948865;28;20219;-76
2023/09/28 01:07:05;;;;;;;3.40;2.53;;;22.70;59.60;24.30;101170.00;;;;4931434;28;20210;-73
2023/09/28 01:09:31;;;;;;;4.10;2.97;;;22.70;59.60;24.20;101175.00;;;;4947286;28;20777;-73
2023/09/28 01:11:59;;;;;;;2.97;2.40;;;22.70;59.70;24.20;101179.00;;;;4949704;28;20643;-73
2023/09/28 01:14:27;;;;;;;2.70;2.33;;;22.60;59.70;24.20;101168.00;;;;4949498;28;20660;-73
2023/09/28 01:16:54;;;;;;;3.30;2.60;;;22.60;59.70;24.20;101171.00;;;;4952870;28;20245;-73
2023/09/28 01:19:21;;;;;;;3.95;2.13;;;22.60;59.80;24.10;101174.00;;;;4948614;28;20199;-73
2023/09/28 01:21:48;;;;;;;2.85;2.55;;;22.50;59.80;24.10;101176.00;;;;4968196;28;20684;-73
2023/09/28 01:24:16;;;;;;;3.00;2.45;;;22.50;59.80;24.10;101170.00;;;;5038104;28;20200;-73
2023/09/28 01:26:43;;;;;;;4.35;2.60;;;22.50;59.80;24.10;101180.00;;;;4947385;28;20192;-73
2023/09/28 01:29:09;;;;;;;3.88;2.60;;;22.50;59.90;24.00;101181.00;;;;4947244;28;20200;-74
2023/09/28 01:31:37;;;;;;;3.50;3.03;;;22.40;59.90;24.00;101183.00;;;;4946125;28;20233;-73
2023/09/28 01:34:03;;;;;;;3.72;2.72;;;22.40;59.90;24.00;101183.00;;;;4949441;28;20203;-73
2023/09/28 01:36:30;;;;;;;2.67;2.33;;;22.30;60.00;23.90;101182.00;;;;4949294;28;20203;-73
2023/09/28 01:39:02;;;;;;;2.85;2.33;;;22.30;60.00;23.90;101185.00;;;;4949087;28;20195;-73
2023/09/28 01:41:30;;;;;;;2.72;2.08;;;22.30;60.20;23.80;101188.00;;;;4948930;28;20710;-73
2023/09/28 01:43:57;;;;;;;4.05;2.88;;;22.20;60.20;23.80;101189.00;;;;4948285;28;20196;-73
2023/09/28 01:46:23;;;;;;;8.50;2.58;;;22.20;60.30;23.80;101194.00;;;;4949339;28;20567;-73
2023/09/28 01:48:50;;;;;;;4.65;2.33;;;22.20;60.30;23.80;101193.00;;;;4952977;29;20199;-73
2023/09/28 01:51:16;;;;;;;4.07;2.97;;;22.20;60.40;23.80;101191.00;;;;4956176;28;20231;-73
2023/09/28 01:53:43;;;;;;;4.20;2.55;;;22.10;60.40;23.80;101194.00;;;;4953161;28;20199;-73
2023/09/28 01:56:09;;;;;;;2.70;1.95;;;22.10;60.40;23.70;101194.00;;;;4952867;28;20203;-73
2023/09/28 01:58:38;;;;;;;2.13;1.90;;;22.10;60.50;23.70;101194.00;;;;4953060;28;20298;-72
2023/09/28 02:01:04;;;;;;;4.82;2.75;;;22.10;60.50;23.70;101198.00;;;;4952418;28;20417;-73
2023/09/28 02:03:31;;;;;;;2.58;2.00;;;22.00;60.50;23.60;101195.00;;;;4952654;28;20341;-72
2023/09/28 02:05:57;;;;;;;2.53;2.10;;;22.00;60.50;23.60;101193.00;;;;4952919;28;20211;-72
2023/09/28 02:08:24;;;;;;;2.33;2.10;;;22.00;60.50;23.60;101196.00;;;;4955173;28;20226;-73
2023/09/28 02:10:50;;;;;;;3.90;2.50;;;22.00;60.60;23.60;101189.00;;;;4952214;28;20211;-74
2023/09/28 02:13:17;;;;;;;3.03;2.28;;;21.90;60.60;23.50;101190.00;;;;4952547;28;20227;-72
2023/09/28 02:15:45;;;;;;;3.83;2.25;;;21.90;60.60;23.50;101191.00;;;;4952341;28;20698;-73
2023/09/28 02:18:12;;;;;;;3.30;2.70;;;21.80;60.60;23.50;101191.00;;;;4952563;28;20196;-72
2023/09/28 02:20:39;;;;;;;3.00;2.42;;;21.80;60.70;23.40;101187.00;;;;4952289;29;20249;-72
2023/09/28 02:23:09;;;;;;;3.50;2.33;;;21.80;60.70;23.40;101177.00;;;;4952591;28;20203;-73
2023/09/28 02:25:35;;;;;;;4.22;2.25;;;21.80;60.80;23.40;101169.00;;;;4954932;28;20203;-72
2023/09/28 02:28:02;;;;;;;2.47;2.03;;;21.70;60.80;23.40;101182.00;;;;4952265;28;20200;-72
2023/09/28 02:30:28;;;;;;;4.47;2.10;;;21.70;60.90;23.30;101191.00;;;;4952077;28;20313;-73
2023/09/28 02:32:56;;;;;;;3.78;2.53;;;21.70;61.00;23.30;101203.00;;;;4952017;28;20322;-73
2023/09/28 02:35:23;;;;;;;3.58;2.47;;;21.70;61.00;23.30;101199.00;;;;4951760;28;20202;-73
2023/09/28 02:37:51;;;;;;;2.88;2.25;;;21.60;61.00;23.30;101209.00;;;;4952154;28;20213;-73
2023/09/28 02:40:19;;;;;;;3.20;2.35;;;21.60;61.00;23.20;101205.00;;;;4952645;28;20685;-73
2023/09/28 02:42:48;;;;;;;2.90;2.47;;;21.60;61.10;23.20;101210.00;;;;4950698;28;20639;-72
2023/09/28 02:45:14;;;;;;;3.20;2.45;;;21.50;61.80;23.20;101213.00;;;;4949901;28;20281;-73
2023/09/28 02:47:43;;;;;;;2.72;2.53;;;21.50;61.10;23.10;101215.00;;;;4952091;28;20203;-73
2023/09/28 02:50:11;;;;;;;2.40;2.20;;;21.50;61.20;23.10;101209.00;;;;4952081;28;20199;-73
2023/09/28 02:52:40;;;;;;;3.80;2.65;;;21.50;61.30;23.10;101205.00;;;;4951829;28;20227;-73
2023/09/28 02:55:08;;;;;;;4.47;2.00;;;21.40;61.30;23.10;101207.00;;;;4951661;29;20621;-74
2023/09/28 02:57:35;;;;;;;3.75;2.90;;;21.40;61.30;23.00;101204.00;;;;4949083;28;20195;-73
2023/09/28 03:00:12;;;;;;;2.83;2.13;;;21.40;61.40;23.00;101208.00;;;;4954688;28;20230;-74
2023/09/28 03:02:39;;;;;;;3.38;2.70;;;21.40;61.50;23.00;101202.00;;;;4944408;28;20209;-75
2023/09/28 03:05:07;;;;;;;3.50;2.85;;;21.30;61.50;22.90;101204.00;;;;4950116;28;20952;-73
2023/09/28 03:07:39;;;;;;;3.15;2.58;;;21.30;61.60;22.90;101212.00;;;;4951831;28;20203;-72
2023/09/28 03:10:07;;;;;;;3.05;2.20;;;21.30;61.70;22.90;101212.00;;;;4947592;28;20223;-73
2023/09/28 03:12:34;;;;;;;4.22;2.72;;;21.30;61.70;22.90;101218.00;;;;4932622;29;20238;-73
2023/09/28 03:15:00;;;;;;;2.88;2.58;;;21.20;61.70;22.90;101218.00;;;;4933022;28;20196;-73
2023/09/28 03:17:28;;;;;;;3.15;2.47;;;21.20;61.70;22.80;101224.00;;;;4965837;28;20222;-73
2023/09/28 03:19:54;;;;;;;3.55;2.70;;;21.20;61.80;22.80;101225.00;;;;4949139;28;20195;-73
2023/09/28 03:22:21;;;;;;;5.95;2.85;;;21.20;61.90;22.80;101220.00;;;;4951257;28;20211;-72
2023/09/28 03:24:48;;;;;;;3.50;2.70;;;21.20;62.00;22.80;101222.00;;;;4952173;28;20199;-72
2023/09/28 03:27:17;;;;;;;3.28;2.05;;;21.20;62.00;22.80;101218.00;;;;4950144;28;20202;-73
2023/09/28 03:29:43;;;;;;;2.60;2.35;;;21.10;61.90;22.80;101230.00;;;;4951193;29;20742;-73
2023/09/28 03:32:10;;;;;;;3.55;2.50;;;21.10;61.90;22.80;101229.00;;;;4950866;28;20219;-74
2023/09/28 03:34:37;;;;;;;4.07;2.50;;;21.10;62.00;22.70;101236.00;;;;4954721;28;20203;-72
2023/09/28 03:37:04;;;;;;;5.35;2.75;;;21.00;62.00;22.70;101239.00;;;;4950389;28;20695;-73
2023/09/28 03:39:32;;;;;;;4.15;2.80;;;21.00;62.00;22.70;101252.00;;;;4950647;28;20602;-73
2023/09/28 03:42:00;;;;;;;6.70;3.22;;;21.00;62.10;22.60;101257.00;;;;4950208;28;20290;-73
2023/09/28 03:44:27;;;;;;;3.30;2.75;;;21.00;62.20;22.60;101264.00;;;;4950504;28;20229;-73
2023/09/28 03:46:54;;;;;;;5.03;2.97;;;20.90;62.10;22.60;101278.00;;;;4948634;28;20222;-73
2023/09/28 03:49:21;;;;;;;4.78;3.03;;;20.90;62.20;22.60;101283.00;;;;4947845;28;20570;-72
2023/09/28 03:51:48;;;;;;;3.50;2.83;;;20.90;62.20;22.60;101283.00;;;;4950791;28;20231;-73
2023/09/28 03:54:16;;;;;;;4.95;2.72;;;20.90;62.30;22.50;101273.00;;;;4950062;29;20206;-73
2023/09/28 03:56:43;;;;;;;4.30;2.55;;;20.90;62.30;22.50;101277.00;;;;4949696;28;20256;-73
2023/09/28 03:59:11;;;;;;;3.83;2.88;;;20.80;62.30;22.50;101287.00;;;;4949159;29;20206;-75
2023/09/28 04:01:44;;;;;;;2.97;2.55;;;20.80;62.40;22.50;101286.00;;;;4950886;28;20202;-73
2023/09/28 04:04:11;;;;;;;3.83;3.00;;;20.80;62.50;22.50;101294.00;;;;4949763;28;20209;-73
2023/09/28 04:06:38;;;;;;;3.05;2.50;;;20.80;62.50;22.50;101294.00;;;;4951520;28;20203;-73
2023/09/28 04:09:07;;;;;;;5.03;3.20;;;20.70;62.50;22.40;101287.00;;;;4961402;28;20243;-73
2023/09/28 04:11:35;;;;;;;3.60;2.70;;;20.70;62.50;22.40;101289.00;;;;4950299;28;20272;-73
2023/09/28 04:14:02;;;;;;;7.75;3.00;;;20.70;62.60;22.40;101298.00;;;;4950862;28;20199;-73
2023/09/28 04:16:30;;;;;;;3.63;2.75;;;20.70;62.60;22.40;101300.00;;;;4949282;28;20286;-74
2023/09/28 04:18:57;;;;;;;3.53;3.17;;;20.70;62.60;22.40;101304.00;;;;4947432;28;20201;-73
2023/09/28 04:21:24;;;;;;;3.33;3.00;;;20.70;62.70;22.30;101298.00;;;;4949678;29;20237;-73
2023/09/28 04:23:51;;;;;;;5.32;3.30;;;20.70;62.70;22.30;101301.00;;;;4954116;28;20195;-73
2023/09/28 04:26:18;;;;;;;2.72;2.45;;;20.60;62.70;22.30;101295.00;;;;4950241;28;20281;-72
2023/09/28 04:28:45;;;;;;;3.80;3.03;;;20.60;62.70;22.30;101285.00;;;;4946801;28;20686;-73
2023/09/28 04:31:13;;;;;;;3.20;2.70;;;20.60;62.80;22.30;101293.00;;;;4948290;28;20199;-74
2023/09/28 04:33:41;;;;;;;4.57;4.10;;;20.60;62.80;22.20;101300.00;;;;4948006;28;20752;-74
2023/09/28 04:36:08;;;;;;;4.25;3.35;;;20.60;62.80;22.20;101287.00;;;;4951916;28;20237;-73
2023/09/28 04:38:36;;;;;;;6.18;3.10;;;20.60;62.90;22.20;101288.00;;;;4948950;28;20659;-73
2023/09/28 04:41:03;;;;;;;6.38;2.88;;;20.50;62.80;22.20;101299.00;;;;4954032;28;20199;-73
2023/09/28 04:43:31;;;;;;;4.38;3.10;;;20.50;62.90;22.20;101303.00;;;;4949835;28;20195;-73
2023/09/28 04:45:58;;;;;;;4.88;3.15;;;20.50;62.90;22.20;101306.00;;;;4950733;28;20199;-73
2023/09/28 04:48:25;;;;;;;4.65;3.53;;;20.50;62.90;22.10;101303.00;;;;4949217;28;20199;-73
2023/09/28 04:50:54;;;;;;;5.85;3.33;;;20.50;62.90;22.10;101303.00;;;;4949915;28;20284;-73
2023/09/28 04:53:21;;;;;;;4.47;3.47;;;20.40;63.00;22.10;101306.00;;;;4949470;28;20723;-72
2023/09/28 04:55:48;;;;;;;5.47;3.88;;;20.40;63.00;22.10;101315.00;;;;4950493;28;20199;-73
2023/09/28 04:58:15;;;;;;;5.50;3.53;;;20.40;63.10;22.00;101320.00;;;;4955376;28;20231;-73
2023/09/28 05:00:43;;;;;;;5.22;3.53;;;20.30;63.20;22.00;101327.00;;;;4940990;28;20567;-72
2023/09/28 05:03:11;;;;;;;5.43;3.05;;;20.30;64.00;22.00;101332.00;;;;4949480;28;20558;-73
2023/09/28 05:05:38;;;;;;;11.27;3.13;;;20.30;63.40;22.00;101330.00;;;;4950115;28;20219;-73
2023/09/28 05:08:07;;;;;;;5.15;2.70;;;20.30;63.50;21.90;101331.00;;;;4948509;28;20262;-73
2023/09/28 05:10:34;;;;;;;6.22;3.47;;;20.30;63.60;22.00;101331.00;;;;4949563;28;20221;-73
2023/09/28 05:13:01;;;;;;;4.68;2.20;;;20.30;63.60;21.90;101334.00;;;;4945861;29;20231;-73
2023/09/28 05:15:28;;;;;;;6.68;2.92;;;20.30;63.70;21.90;101342.00;;;;4951989;28;20650;-73
2023/09/28 05:17:55;;;;;;;4.88;2.10;;;20.30;63.70;21.90;101342.00;;;;4940011;28;20199;-73
2023/09/28 05:20:22;;;;;;;5.25;2.20;;;20.30;63.70;21.90;101343.00;;;;4938997;28;20207;-74
2023/09/28 05:22:49;;;;;;;7.60;2.00;;;20.30;63.70;21.90;101339.00;;;;4950520;28;20303;-72
2023/09/28 05:25:18;;;;;;;6.45;2.30;;;20.30;63.60;21.90;101345.00;;;;4950053;28;20206;-73
2023/09/28 05:27:45;;;;;;;6.43;1.98;;;20.30;63.60;21.90;101341.00;;;;4952933;28;20280;-73
2023/09/28 05:30:13;;;;;;;10.32;2.22;;;20.30;63.50;21.90;101346.00;;;;4949577;28;20644;-73
2023/09/28 05:32:41;;;;;;;6.88;2.10;;;20.30;63.40;21.90;101361.00;;;;4987692;28;20227;-73
2023/09/28 05:35:08;;;;;;;6.13;2.80;;;20.30;63.40;21.90;101375.00;;;;4953358;28;20226;-73
2023/09/28 05:37:36;;;;;;;9.43;1.98;;;20.30;63.40;21.90;101384.00;;;;4949544;28;20203;-74
2023/09/28 05:40:12;;;;;;;8.95;2.42;;;20.30;63.40;21.80;101389.00;;;;4949053;28;20635;-74
2023/09/28 05:42:41;;;;;;;9.60;2.15;;;20.30;63.50;21.80;101392.00;;;;4949797;28;20585;-73
2023/09/28 05:45:10;;;;;;;6.85;2.08;;;20.30;63.30;21.80;101395.00;;;;4948359;28;20612;-73
2023/09/28 05:47:37;;;;;;;9.90;2.13;;;20.30;63.30;21.90;101391.00;;;;4952571;28;20213;-74
2023/09/28 05:50:07;;;;;;;5.88;1.83;;;20.30;63.30;21.90;101402.00;;;;4954203;28;20686;-74
2023/09/28 05:52:34;;;;;;;10.35;2.28;;;20.30;63.20;21.90;101394.00;;;;4977001;28;20223;-73
2023/09/28 05:55:01;;;;;;;6.78;1.70;;;20.30;63.20;21.90;101392.00;;;;4960468;28;20633;-74
2023/09/28 05:57:28;;;;;;;11.43;2.13;;;20.30;63.10;21.80;101393.00;;;;4950734;28;20215;-73
2023/09/28 05:59:57;;;;;;;6.40;1.98;;;20.30;63.10;21.80;101401.00;;;;4952537;28;20205;-73
2023/09/28 06:02:24;;;;;;;5.97;2.05;;;20.30;63.10;21.80;101407.00;;;;4956944;28;20203;-73
2023/09/28 06:04:51;;;;;;;10.77;2.58;;;20.30;63.10;21.90;101418.00;;;;4950265;28;20787;-73
2023/09/28 06:07:18;;;;;;;7.90;2.60;;;20.30;63.10;21.90;101419.00;;;;4955626;28;20290;-74
2023/09/28 06:09:45;;;;;;;10.40;2.30;;;20.30;63.10;21.90;101409.00;;;;4952269;29;20241;-73
2023/09/28 06:12:12;;;;;;;9.90;2.70;;;20.30;63.10;21.90;101394.00;;;;4951742;28;20698;-73
2023/09/28 06:14:39;;;;;;;7.25;2.03;;;20.30;63.10;21.90;101391.00;;;;4950711;29;20242;-73
2023/09/28 06:17:07;;;;;;;7.47;2.22;;;20.30;63.10;21.90;101405.00;;;;4950817;29;20615;-73
2023/09/28 06:19:35;;;;;;;8.30;3.00;;;20.30;63.10;21.90;101404.00;;;;4950486;28;20230;-75
2023/09/28 06:22:03;;;;;;;6.78;1.50;;;20.30;63.20;22.00;101394.00;;;;4950335;28;20286;-73
2023/09/28 06:24:31;;;;;;;7.53;1.35;;;20.30;63.20;21.90;101387.00;;;;4954373;28;20221;-74
2023/09/28 06:26:58;;;;;;;7.47;1.92;;;20.30;63.10;22.00;101400.00;;;;4951680;28;20583;-74
2023/09/28 06:29:25;;;;;;;8.63;1.75;;;20.30;63.10;22.00;101407.00;;;;4951994;28;20199;-74
2023/09/28 06:31:52;;;;;;;4.95;1.77;;;20.30;63.10;22.00;101413.00;;;;4951162;29;20206;-74
2023/09/28 06:34:20;;;;;;;6.80;1.70;;;20.30;63.20;22.00;101417.00;;;;4951690;28;20226;-73
2023/09/28 06:36:47;;;;;;;9.55;1.83;;;20.30;63.30;22.00;101422.00;;;;4952708;28;20199;-73
2023/09/28 06:39:14;;;;;;;7.63;2.08;;;20.30;63.20;22.00;101432.00;;;;4951483;28;20209;-73
2023/09/28 06:41:41;;;;;;;8.85;2.30;;;20.40;63.30;22.00;101427.00;;;;5036378;28;20365;-72
2023/09/28 06:44:09;;;;;;;7.80;1.58;;;20.30;63.20;22.00;101422.00;;;;5053128;28;20282;-73
2023/09/28 06:46:36;;;;;;;7.43;1.50;;;20.40;63.20;22.10;101421.00;;;;5053286;28;20200;-74
2023/09/28 06:49:05;;;;;;;7.93;1.85;;;20.40;63.20;22.10;101426.00;;;;5025666;28;20223;-74
2023/09/28 06:51:34;;;;;;;5.93;1.80;;;20.40;63.30;22.10;101435.00;;;;4952243;28;20253;-73
2023/09/28 06:54:01;;;;;;;3.80;1.33;;;20.50;63.40;22.20;101450.00;;;;4952297;28;20284;-74
2023/09/28 06:56:29;;;;;;;7.55;1.95;;;20.50;63.30;22.20;101462.00;;;;4952339;28;20213;-73
2023/09/28 06:58:56;;;;;;;7.60;2.22;;;20.50;63.40;22.20;101465.00;;;;5047174;28;20200;-74
2023/09/28 07:01:23;;;;;;;9.18;1.90;;;20.50;63.40;22.20;101465.00;;;;5048602;28;20198;-73
2023/09/28 07:03:52;;;;;;;7.57;1.90;;;20.60;64.20;22.30;101464.00;;;;4951521;28;20286;-74
2023/09/28 07:06:22;;;;;;;7.80;1.90;;;20.60;63.40;22.30;101462.00;;;;4952093;28;20202;-72
2023/09/28 07:08:51;;;;;;;10.68;2.30;;;20.60;63.40;22.30;101478.00;;;;4951506;28;20588;-73
2023/09/28 07:11:19;;;;;;;8.05;2.20;;;20.70;63.50;22.40;101477.00;;;;4951403;29;20635;-72
2023/09/28 07:13:46;;;;;;;7.22;2.03;;;20.70;63.50;22.40;101479.00;;;;4954042;28;20234;-72
2023/09/28 07:16:13;;;;;;;9.73;2.60;;;20.70;63.50;22.50;101478.00;;;;4951599;28;20203;-74
2023/09/28 07:18:41;;;;;;;12.35;2.30;;;20.80;63.50;22.50;101464.00;;;;4952626;28;20205;-74
2023/09/28 07:21:08;;;;;;;7.60;1.90;;;20.90;63.50;22.60;101461.00;;;;4952074;28;20272;-75
2023/09/28 07:23:36;;;;;;;11.13;2.35;;;20.90;63.40;22.60;101469.00;;;;4951310;28;20574;-74
2023/09/28 07:26:16;;;;;;;9.63;2.47;;;20.90;63.40;22.60;101469.00;;;;4951570;29;20196;-73
2023/09/28 07:28:43;;;;;;;9.90;1.67;;;21.00;63.50;22.70;101475.00;;;;4951694;28;20203;-74
2023/09/28 07:31:11;;;;;;;11.20;2.70;;;21.10;63.50;22.80;101474.00;;;;4954900;28;20214;-73
2023/09/28 07:33:39;;;;;;;11.10;2.75;;;21.10;63.40;22.80;101477.00;;;;4951557;28;20227;-73
2023/09/28 07:36:07;;;;;;;9.90;1.95;;;21.20;63.30;22.90;101491.00;;;;4951870;28;20214;-74
2023/09/28 07:38:34;;;;;;;7.03;2.47;;;21.20;63.30;23.00;101490.00;;;;4951176;28;20207;-75
2023/09/28 07:41:02;;;;;;;10.23;1.77;;;21.30;63.30;23.00;101493.00;;;;4950404;28;20195;-74
2023/09/28 07:43:30;;;;;;;8.27;1.98;;;21.40;63.40;23.10;101496.00;;;;4951823;28;20215;-74
2023/09/28 07:45:58;;;;;;;8.80;2.53;;;21.50;63.50;23.20;101499.00;;;;4951633;28;20298;-73
2023/09/28 07:48:25;;;;;;;10.98;2.85;;;21.50;63.40;23.20;101503.00;;;;4954856;28;20217;-74
2023/09/28 07:50:52;;;;;;;10.85;2.67;;;21.60;63.30;23.30;101501.00;;;;4951211;28;20203;-74
2023/09/28 07:53:20;;;;;;;15.30;2.88;;;21.70;63.10;23.40;101509.00;;;;4951448;28;20782;-73
2023/09/28 07:55:47;;;;;;;14.15;2.72;;;21.80;63.00;23.40;101504.00;;;;4949991;28;20279;-75
2023/09/28 07:58:15;;;;;;;10.13;2.53;;;21.80;62.90;23.50;101515.00;;;;4949006;28;20298;-73
2023/09/28 08:00:44;;;;;;;8.25;2.08;;;21.90;62.70;23.50;101507.00;;;;4950087;28;20222;-73
2023/09/28 08:03:11;;;;;;;19.88;3.00;;;21.90;62.30;23.50;101514.00;;;;4950010;28;20195;-74
2023/09/28 08:05:38;;;;;;;8.50;2.47;;;22.00;62.20;23.50;101521.00;;;;4991681;28;20203;-74
2023/09/28 08:08:06;;;;;;;10.07;2.70;;;22.00;62.00;23.50;101520.00;;;;4996950;28;20227;-73
2023/09/28 08:10:33;;;;;;;9.68;2.67;;;22.10;62.00;23.60;101531.00;;;;4948889;28;20455;-73
2023/09/28 08:13:00;;;;;;;13.38;3.05;;;22.10;61.90;23.60;101534.00;;;;4950877;28;20254;-76
2023/09/28 08:15:29;;;;;;;8.23;2.25;;;22.10;61.80;23.60;101529.00;;;;4950338;29;20286;-74
2023/09/28 08:17:57;;;;;;;8.65;2.83;;;22.10;61.70;23.60;101531.00;;;;4951088;28;20204;-73
2023/09/28 08:20:26;;;;;;;17.88;3.08;;;22.10;61.70;23.70;101535.00;;;;4949904;28;20195;-75
2023/09/28 08:22:53;;;;;;;9.95;2.63;;;22.20;61.60;23.70;101539.00;;;;4947683;28;20205;-73
2023/09/28 08:25:20;;;;;;;11.27;2.85;;;22.20;61.50;23.80;101529.00;;;;4950214;28;20203;-72
2023/09/28 08:27:48;;;;;;;6.05;2.00;;;22.20;61.40;23.80;101513.00;;;;4950662;28;20205;-74
2023/09/28 08:30:16;;;;;;;9.93;2.20;;;22.30;61.40;23.80;101530.00;;;;4950728;28;20662;-72
2023/09/28 08:32:43;;;;;;;9.35;2.58;;;22.30;61.40;23.90;101540.00;;;;4950759;28;20206;-74
2023/09/28 08:35:12;;;;;;;7.45;2.35;;;22.30;61.20;23.90;101542.00;;;;4950722;28;20229;-74
2023/09/28 08:37:39;;;;;;;7.20;2.38;;;22.40;61.20;24.00;101544.00;;;;4950883;28;20663;-74
2023/09/28 08:40:09;;;;;;;9.32;2.78;;;22.40;61.00;24.00;101544.00;;;;4979883;28;20559;-73
2023/09/28 08:42:40;;;;;;;8.98;2.03;;;22.50;61.00;24.00;101545.00;;;;4950301;28;20290;-74
2023/09/28 08:45:11;;;;;;;9.25;1.95;;;22.50;60.90;24.10;101556.00;;;;4951082;28;20238;-75
2023/09/28 08:47:51;;;;;;;13.90;2.22;;;22.50;60.90;24.00;101553.00;;;;4949972;28;20723;-74
2023/09/28 08:50:27;;;;;;;12.65;2.55;;;22.60;60.60;24.10;101543.00;;;;4949718;28;20672;-74
2023/09/28 08:52:55;;;;;;;9.77;3.03;;;22.60;60.60;24.20;101554.00;;;;4949415;28;20205;-72
2023/09/28 08:55:22;;;;;;;12.43;2.75;;;22.70;60.60;24.20;101548.00;;;;4949299;28;20671;-74
2023/09/28 08:57:50;;;;;;;6.63;1.90;;;22.70;60.50;24.30;101544.00;;;;4962907;28;20199;-75
2023/09/28 09:00:23;;;;;;;15.23;3.00;;;22.70;60.30;24.30;101553.00;;;;4957614;28;20590;-76
2023/09/28 09:02:52;;;;;;;10.50;2.00;;;22.80;60.40;24.30;101553.00;;;;4961462;28;20252;-75
2023/09/28 09:05:21;;;;;;;10.45;2.53;;;22.80;60.20;24.40;101546.00;;;;4953882;29;20727;-74
2023/09/28 09:07:50;;;;;;;8.73;2.17;;;22.90;60.10;24.40;101541.00;;;;4956371;28;20207;-74
2023/09/28 09:10:21;;;;;;;10.15;2.47;;;22.90;60.00;24.40;101565.00;;;;4949407;28;20237;-75
2023/09/28 09:12:48;;;;;;;7.85;2.83;;;22.90;60.00;24.40;101566.00;;;;4951248;28;20203;-75
2023/09/28 09:15:17;;;;;;;7.60;3.08;;;22.90;60.00;24.50;101565.00;;;;4953491;28;20230;-75
2023/09/28 09:17:44;;;;;;;6.93;1.75;;;23.00;60.10;24.60;101563.00;;;;4953933;28;20214;-73
2023/09/28 09:20:12;;;;;;;7.35;2.25;;;23.00;60.10;24.60;101571.00;;;;4953428;28;20226;-75
2023/09/28 09:22:41;;;;;;;6.50;2.60;;;23.10;60.20;24.60;101578.00;;;;4952353;29;20655;-73
2023/09/28 09:25:09;;;;;;;7.80;2.40;;;23.10;59.80;24.60;101585.00;;;;4952555;28;20242;-74
2023/09/28 09:27:36;;;;;;;10.45;2.13;;;23.10;59.70;24.60;101578.00;;;;4953167;28;20577;-76
2023/09/28 09:30:08;;;;;;;10.18;2.42;;;23.10;59.60;24.70;101575.00;;;;4969139;28;20374;-75
2023/09/28 09:32:37;;;;;;;9.48;2.13;;;23.20;59.70;24.70;101579.00;;;;4982401;28;20203;-75
2023/09/28 09:35:07;;;;;;;13.48;2.63;;;23.20;59.60;24.70;101570.00;;;;4953356;28;20235;-74
2023/09/28 09:37:34;;;;;;;8.13;2.33;;;23.20;59.70;24.80;101569.00;;;;4953481;28;20233;-73
2023/09/28 09:40:12;;;;;;;7.97;2.17;;;23.30;59.60;24.70;101579.00;;;;4952063;28;20290;-74
2023/09/28 09:42:41;;;;;;;8.18;1.70;;;23.30;59.40;24.80;101568.00;;;;4953003;28;20217;-73
2023/09/28 09:45:11;;;;;;;9.55;2.67;;;23.30;59.50;24.90;101569.00;;;;4952854;28;21380;-73
2023/09/28 09:47:46;;;;;;;8.15;2.17;;;23.30;59.40;24.80;101564.00;;;;4961196;28;20203;-75
2023/09/28 09:50:16;;;;;;;10.52;2.72;;;23.40;59.30;24.90;101574.00;;;;4953145;29;20624;-75
2023/09/28 09:52:45;;;;;;;11.07;2.45;;;23.40;59.20;24.90;101570.00;;;;4953024;29;20222;-72
2023/09/28 09:55:14;;;;;;;14.90;2.88;;;23.40;59.20;24.90;101565.00;;;;4952820;28;20265;-73
2023/09/28 09:57:44;;;;;;;8.40;2.08;;;23.40;58.90;24.90;101564.00;;;;4953207;28;20611;-72
2023/09/28 10:00:15;;;;;;;5.97;1.67;;;23.40;59.00;25.00;101560.00;;;;4953211;28;20204;-73
2023/09/28 10:02:45;;;;;;;9.68;2.45;;;23.50;59.00;25.00;101569.00;;;;4952882;28;20264;-74
2023/09/28 10:05:16;;;;;;;12.30;2.38;;;23.50;59.10;25.00;101578.00;;;;4979093;28;20226;-73
2023/09/28 10:07:45;;;;;;;10.60;1.80;;;23.50;58.90;25.10;101583.00;;;;4952870;28;20286;-73
2023/09/28 10:10:15;;;;;;;10.35;1.92;;;23.50;58.70;25.00;101574.00;;;;4951065;28;20261;-73
2023/09/28 10:12:42;;;;;;;9.70;2.58;;;23.50;58.60;25.10;101564.00;;;;4952351;28;20463;-74
2023/09/28 10:15:13;;;;;;;9.02;2.25;;;23.60;58.70;25.10;101564.00;;;;4952256;28;20226;-73
2023/09/28 10:17:40;;;;;;;7.18;2.10;;;23.60;58.60;25.20;101559.00;;;;4950709;28;20295;-73
2023/09/28 10:20:09;;;;;;;10.63;2.63;;;23.60;58.60;25.20;101565.00;;;;4952765;28;20203;-74
2023/09/28 10:22:41;;;;;;;7.53;2.42;;;23.60;58.70;25.30;101559.00;;;;4956394;28;20214;-72
2023/09/28 10:25:12;;;;;;;10.07;2.25;;;23.70;58.50;25.30;101564.00;;;;4952226;28;20226;-73
2023/09/28 10:27:43;;;;;;;8.43;2.05;;;23.80;58.10;25.20;101562.00;;;;4953066;28;20256;-74
2023/09/28 10:30:19;;;;;;;10.65;2.53;;;23.80;58.10;25.20;101571.00;;;;4949842;29;20210;-73
2023/09/28 10:32:46;;;;;;;5.32;1.77;;;23.80;57.70;25.30;101576.00;;;;4951208;28;20199;-74
2023/09/28 10:35:27;;;;;;;6.97;1.80;;;23.80;57.80;25.20;101581.00;;;;4951611;28;20227;-73
2023/09/28 10:38:20;;;;;;;6.40;1.88;;;23.80;57.50;25.20;101575.00;;;;4956938;28;20213;-74
2023/09/28 10:41:05;;;;;;;4.45;1.70;;;23.90;57.50;25.20;101584.00;;;;4931601;28;20203;-76
2023/09/28 10:43:39;;;;;;;6.63;2.10;;;23.90;57.60;25.30;101585.00;;;;4948231;29;20203;-73
2023/09/28 10:46:08;;;;;;;6.60;2.20;;;23.90;57.70;25.40;101592.00;;;;4950973;28;20298;-73
2023/09/28 10:48:40;;;;;;;6.70;2.28;;;23.90;57.60;25.30;101596.00;;;;4950342;28;20198;-72
2023/09/28 10:51:12;;;;;;;8.07;1.95;;;23.90;57.40;25.40;101595.00;;;;4950724;28;20598;-73